Time;durP1;ratioP1;P1;durP2;ratioP2;P2;SDS_P1;SDS_P2;PMS_P1;PMS_P2;Temp;Humidity;BMP_temperature;BMP_pressure;BME280_temperature;BME280_humidity;BME280_pressure;Samples;Min_cycle;Max_cycle;Signal;HPM_P1;HPM_P2
2022/05/05 00:00:49;;;;;;;15.02;5.30;;;8.10;99.90;;;;;;4771968;30;20067;-64
2022/05/05 00:03:15;;;;;;;14.38;5.65;;;7.70;99.90;;;;;;4771560;30;20063;-64
2022/05/05 00:05:41;;;;;;;11.63;5.60;;;7.70;99.90;;;;;;4771808;30;20055;-64
2022/05/05 00:08:09;;;;;;;15.38;5.20;;;7.10;99.90;;;;;;4771842;30;20119;-63
2022/05/05 00:16:04;;;;;;;12.10;5.97;;;7.60;99.90;;;;;;4771944;30;20156;-63
2022/05/05 00:18:30;;;;;;;15.52;5.95;;;7.40;99.90;;;;;;4771809;30;20052;-63
2022/05/05 00:20:56;;;;;;;13.27;6.50;;;7.00;99.90;;;;;;4771475;30;20488;-63
2022/05/05 00:23:22;;;;;;;13.65;6.22;;;;;;;;;;4771322;30;20226;-65
2022/05/05 00:25:48;;;;;;;10.23;5.65;;;7.30;99.90;;;;;;4771678;30;20060;-65
2022/05/05 00:28:13;;;;;;;16.67;6.05;;;7.40;99.90;;;;;;4771635;30;20043;-65
2022/05/05 00:30:39;;;;;;;16.30;6.30;;;;;;;;;;4755675;30;20079;-65
2022/05/05 00:33:05;;;;;;;11.55;6.07;;;7.30;99.90;;;;;;4755623;30;20845;-65
2022/05/05 00:35:31;;;;;;;14.65;5.80;;;7.40;99.90;;;;;;4755701;30;20142;-65
2022/05/05 00:37:57;;;;;;;13.07;5.45;;;;;;;;;;4755255;30;20445;-65
2022/05/05 00:40:23;;;;;;;14.57;5.78;;;7.20;99.90;;;;;;4755586;30;20106;-65
2022/05/05 00:42:49;;;;;;;14.48;5.63;;;7.40;99.90;;;;;;4771372;30;20087;-65
2022/05/05 00:45:15;;;;;;;13.95;6.13;;;6.70;99.90;;;;;;4771079;30;20048;-65
2022/05/05 00:47:40;;;;;;;17.25;6.90;;;7.20;99.90;;;;;;4755047;30;20139;-65
2022/05/05 00:50:07;;;;;;;15.40;6.25;;;7.30;99.90;;;;;;4771044;30;20466;-65
2022/05/05 00:52:33;;;;;;;15.18;6.40;;;;;;;;;;4740393;30;20417;-65
2022/05/05 00:55:00;;;;;;;17.15;7.00;;;7.40;99.90;;;;;;4771219;30;20412;-65
2022/05/05 00:57:26;;;;;;;15.82;7.40;;;;;;;;;;4771135;30;20064;-65
2022/05/05 00:59:53;;;;;;;13.10;7.13;;;7.20;99.90;;;;;;4770966;30;20056;-65
2022/05/05 01:02:22;;;;;;;13.20;7.00;;;7.20;99.90;;;;;;4858935;24;20067;-81
2022/05/05 01:04:48;;;;;;;20.70;7.30;;;;;;;;;;4770906;30;20067;-81
2022/05/05 01:07:18;;;;;;;14.15;7.75;;;7.20;99.90;;;;;;4770658;30;20055;-82
2022/05/05 01:09:45;;;;;;;14.20;7.60;;;;;;;;;;4769480;30;20059;-82
2022/05/05 01:12:11;;;;;;;17.23;7.80;;;;;;;;;;4770008;30;20079;-81
2022/05/05 01:14:37;;;;;;;18.30;8.20;;;;;;;;;;4770933;30;20058;-82
2022/05/05 01:17:03;;;;;;;14.57;8.32;;;;;;;;;;4771013;30;20492;-82
2022/05/05 01:19:29;;;;;;;16.92;8.13;;;;;;;;;;4784393;30;20062;-81
2022/05/05 01:22:06;;;;;;;19.05;8.15;;;;;;;;;;4769904;30;20155;-80
2022/05/05 01:30:09;;;;;;;20.67;9.07;;;7.30;99.90;;;;;;4770664;30;20055;-82
2022/05/05 01:32:35;;;;;;;27.00;10.05;;;;;;;;;;4770272;30;20085;-82
2022/05/05 01:35:04;;;;;;;17.85;9.00;;;;;;;;;;4769135;30;20062;-81
2022/05/05 01:37:30;;;;;;;18.00;9.15;;;;;;;;;;4770279;30;20412;-82
2022/05/05 01:39:56;;;;;;;21.20;9.43;;;;;;;;;;4770129;30;20059;-82
2022/05/05 01:42:22;;;;;;;14.98;8.98;;;;;;;;;;4768648;30;20063;-81
2022/05/05 01:44:48;;;;;;;21.60;9.57;;;;;;;;;;4769107;30;20059;-81
2022/05/05 01:47:14;;;;;;;16.88;9.18;;;;;;;;;;4770383;30;20077;-80
2022/05/05 01:49:46;;;;;;;17.60;9.05;;;;;;;;;;4768812;30;20567;-81
2022/05/05 01:52:12;;;;;;;17.83;8.70;;;;;;;;;;4770164;30;20052;-81
2022/05/05 01:54:41;;;;;;;15.95;9.05;;;;;;;;;;4770248;30;20060;-81
2022/05/05 01:57:07;;;;;;;20.13;9.68;;;;;;;;;;4770505;30;20060;-82
2022/05/05 01:59:34;;;;;;;18.42;9.52;;;;;;;;;;4769012;30;20113;-81
2022/05/05 02:02:02;;;;;;;22.15;9.65;;;;;;;;;;4768313;30;20063;-81
2022/05/05 02:04:31;;;;;;;19.30;9.45;;;;;;;;;;4769740;30;20076;-81
2022/05/05 02:06:57;;;;;;;19.98;9.60;;;;;;;;;;4770417;30;20148;-81
2022/05/05 02:09:23;;;;;;;15.88;9.18;;;;;;;;;;4768817;30;20059;-81
2022/05/05 02:11:49;;;;;;;16.40;9.02;;;;;;;;;;4769565;30;20052;-80
2022/05/05 02:14:18;;;;;;;16.55;9.75;;;;;;;;;;4769179;30;20090;-82
2022/05/05 02:16:44;;;;;;;22.65;9.75;;;;;;;;;;4768820;30;20056;-82
2022/05/05 02:19:13;;;;;;;18.08;9.57;;;;;;;;;;4770107;30;20485;-81
2022/05/05 02:21:41;;;;;;;21.73;9.90;;;7.20;99.90;;;;;;4753557;30;20048;-82
2022/05/05 02:24:10;;;;;;;20.25;9.50;;;;;;;;;;4753862;30;20687;-81
2022/05/05 02:26:36;;;;;;;17.52;9.70;;;;;;;;;;4768471;30;20856;-82
2022/05/05 02:29:02;;;;;;;16.38;9.55;;;;;;;;;;4769842;30;20419;-80
2022/05/05 02:31:28;;;;;;;18.50;9.88;;;;;;;;;;4768680;30;20708;-81
2022/05/05 02:33:54;;;;;;;16.48;9.52;;;;;;;;;;4769837;30;20525;-81
2022/05/05 02:39:07;;;;;;;20.27;9.40;;;;;;;;;;4770106;30;20064;-80
2022/05/05 02:41:33;;;;;;;15.20;9.63;;;;;;;;;;4769583;30;20067;-81
2022/05/05 02:43:59;;;;;;;18.65;9.60;;;;;;;;;;4768106;30;20052;-80
2022/05/05 02:46:25;;;;;;;22.52;9.73;;;;;;;;;;4768294;30;20420;-82
2022/05/05 02:48:54;;;;;;;18.92;9.60;;;;;;;;;;4768517;30;20056;-82
2022/05/05 02:51:20;;;;;;;17.95;9.90;;;;;;;;;;4769898;30;20067;-81
2022/05/05 02:56:31;;;;;;;15.73;9.70;;;;;;;;;;4769643;30;20480;-81
2022/05/05 02:58:57;;;;;;;18.85;9.85;;;;;;;;;;4753413;30;20063;-80
2022/05/05 03:01:23;;;;;;;21.88;10.52;;;;;;;;;;4767962;30;20052;-81
2022/05/05 03:03:49;;;;;;;20.05;10.13;;;;;;;;;;4769357;30;20060;-81
2022/05/05 03:06:15;;;;;;;20.48;10.35;;;;;;;;;;4769481;30;20156;-81
2022/05/05 03:08:41;;;;;;;18.85;11.05;;;;;;;;;;4769463;30;20055;-81
2022/05/05 03:11:07;;;;;;;20.58;10.90;;;;;;;;;;4769504;30;20063;-81
2022/05/05 03:13:33;;;;;;;23.15;10.98;;;;;;;;;;4753125;30;20056;-83
2022/05/05 03:15:59;;;;;;;22.45;10.02;;;;;;;;;;4768236;30;20488;-82
2022/05/05 03:18:25;;;;;;;18.23;10.25;;;;;;;;;;4769462;30;20055;-82
2022/05/05 03:20:51;;;;;;;18.15;10.50;;;;;;;;;;4769476;30;20195;-81
2022/05/05 03:23:17;;;;;;;19.30;10.00;;;;;;;;;;4769233;30;20159;-81
2022/05/05 03:25:43;;;;;;;18.30;10.30;;;;;;;;;;4771254;30;20063;-81
2022/05/05 03:28:09;;;;;;;17.40;10.05;;;;;;;;;;4756459;30;20058;-81
2022/05/05 03:30:35;;;;;;;21.27;10.20;;;;;;;;;;4770888;30;20095;-82
2022/05/05 03:33:01;;;;;;;14.95;9.60;;;;;;;;;;4772511;30;20063;-81
2022/05/05 03:35:27;;;;;;;19.52;10.50;;;;;;;;;;4772098;30;20064;-81
2022/05/05 03:37:55;;;;;;;19.73;10.98;;;5.90;99.90;;;;;;4772372;30;20051;-82
2022/05/05 03:40:21;;;;;;;17.98;10.70;;;;;;;;;;4785803;30;20546;-81
2022/05/05 03:42:47;;;;;;;17.80;11.63;;;;;;;;;;4769804;30;20051;-81
2022/05/05 03:45:13;;;;;;;24.90;12.00;;;;;;;;;;4771871;30;20067;-82
2022/05/05 03:47:39;;;;;;;20.67;11.98;;;;;;;;;;4770475;30;20063;-82
2022/05/05 03:50:06;;;;;;;21.60;12.23;;;;;;;;;;4770406;30;20071;-81
2022/05/05 03:52:32;;;;;;;22.27;11.20;;;;;;;;;;4770478;30;20062;-81
2022/05/05 03:54:58;;;;;;;20.33;12.07;;;;;;;;;;4771526;30;20063;-81
2022/05/05 03:57:24;;;;;;;19.75;12.27;;;;;;;;;;4771380;30;20043;-81
2022/05/05 03:59:51;;;;;;;22.67;13.10;;;;;;;;;;4770382;30;20068;-82
2022/05/05 04:02:17;;;;;;;23.58;13.20;;;;;;;;;;4770138;30;20138;-82
2022/05/05 04:04:43;;;;;;;22.05;13.27;;;;;;;;;;4771858;30;20070;-81
2022/05/05 04:07:09;;;;;;;19.13;12.00;;;;;;;;;;4771846;30;20063;-80
2022/05/05 04:09:35;;;;;;;18.67;12.60;;;;;;;;;;4755550;30;20179;-80
2022/05/05 04:12:01;;;;;;;21.15;12.60;;;;;;;;;;4771748;30;20060;-81
2022/05/05 04:14:27;;;;;;;22.00;14.40;;;;;;;;;;4770216;30;20558;-81
2022/05/05 04:16:54;;;;;;;22.55;12.93;;;;;;;;;;4771640;30;20085;-81
2022/05/05 04:19:20;;;;;;;23.63;12.65;;;;;;;;;;4771273;30;20496;-82
2022/05/05 04:21:48;;;;;;;25.17;13.30;;;6.10;99.90;;;;;;4772802;30;20121;-82
2022/05/05 04:24:14;;;;;;;21.35;13.70;;;;;;;;;;4796720;30;20066;-81
2022/05/05 04:26:41;;;;;;;20.27;13.65;;;;;;;;;;4787468;30;20151;-80
2022/05/05 04:29:09;;;;;;;22.23;13.27;;;6.20;99.90;;;;;;4771185;30;20117;-81
2022/05/05 04:31:35;;;;;;;21.25;13.75;;;;;;;;;;4771497;30;20134;-82
2022/05/05 04:34:01;;;;;;;23.10;13.82;;;;;;;;;;4771536;30;20134;-81
2022/05/05 04:36:27;;;;;;;17.25;12.63;;;;;;;;;;4768874;30;20059;-81
2022/05/05 04:38:54;;;;;;;28.75;13.90;;;;;;;;;;4770012;30;20101;-82
2022/05/05 04:41:21;;;;;;;28.98;13.90;;;;;;;;;;4770955;30;20136;-82
2022/05/05 04:43:47;;;;;;;20.70;12.93;;;;;;;;;;4771181;30;20396;-82
2022/05/05 04:46:13;;;;;;;24.67;14.13;;;;;;;;;;4771410;30;20056;-81
2022/05/05 04:48:39;;;;;;;26.25;14.05;;;;;;;;;;4770996;30;20117;-81
2022/05/05 04:51:05;;;;;;;22.30;13.98;;;;;;;;;;4769684;30;20063;-82
2022/05/05 04:53:31;;;;;;;22.83;13.90;;;;;;;;;;4771059;30;20060;-82
2022/05/05 04:55:57;;;;;;;22.08;13.50;;;;;;;;;;4768734;30;20487;-82
2022/05/05 04:58:23;;;;;;;25.45;14.10;;;;;;;;;;4770878;30;20057;-82
2022/05/05 05:00:53;;;;;;;24.10;13.63;;;;;;;;;;4770980;30;20051;-82
2022/05/05 05:03:39;;;;;;;28.92;13.43;;;;;;;;;;4769523;30;20070;-82
2022/05/05 05:06:07;;;;;;;26.27;13.98;;;7.90;99.90;;;;;;4769922;30;20095;-80
2022/05/05 05:08:38;;;;;;;22.55;13.30;;;8.00;99.90;;;;;;4754303;30;20054;-82
2022/05/05 05:11:07;;;;;;;23.40;13.23;;;;;;;;;;4769471;30;20063;-81
2022/05/05 05:13:33;;;;;;;22.73;13.43;;;;;;;;;;4770510;30;20059;-82
2022/05/05 05:15:59;;;;;;;28.15;13.35;;;;;;;;;;4769526;30;20062;-82
2022/05/05 05:18:28;;;;;;;26.75;12.70;;;8.90;99.90;;;;;;4770493;30;20070;-82
2022/05/05 05:20:54;;;;;;;22.83;12.10;;;;;;;;;;4769020;30;20091;-82
2022/05/05 05:23:20;;;;;;;23.20;12.45;;;;;;;;;;4768456;30;20455;-82
2022/05/05 05:25:46;;;;;;;21.73;11.75;;;;;;;;;;4770362;30;20064;-82
2022/05/05 05:28:15;;;;;;;28.88;13.38;;;10.10;99.90;;;;;;4768689;30;20528;-82
2022/05/05 05:30:41;;;;;;;27.63;12.45;;;;;;;;;;4769298;30;20064;-82
2022/05/05 05:33:07;;;;;;;24.13;12.85;;;;;;;;;;4769155;30;20063;-81
2022/05/05 05:35:34;;;;;;;27.52;13.30;;;;;;;;;;4754241;30;20147;-82
2022/05/05 05:38:00;;;;;;;31.58;12.65;;;;;;;;;;4754097;30;20064;-82
2022/05/05 05:40:26;;;;;;;21.55;12.88;;;;;;;;;;4770030;30;20115;-80
2022/05/05 05:42:55;;;;;;;29.95;13.13;;;11.40;99.90;;;;;;4770032;30;20063;-81
2022/05/05 05:45:24;;;;;;;27.83;13.57;;;;;;;;;;4784180;30;20205;-81
2022/05/05 05:47:51;;;;;;;26.00;12.85;;;;;;;;;;4752659;30;20196;-84
2022/05/05 05:50:17;;;;;;;27.55;13.35;;;;;;;;;;4754091;30;20522;-81
2022/05/05 05:52:43;;;;;;;21.00;12.10;;;;;;;;;;4771081;30;20056;-79
2022/05/05 05:55:09;;;;;;;24.98;12.68;;;;;;;;;;4758713;30;20060;-80
2022/05/05 05:57:35;;;;;;;33.65;13.23;;;;;;;;;;4778212;30;20504;-78
2022/05/05 06:00:01;;;;;;;22.85;12.20;;;;;;;;;;4762196;30;20091;-78
2022/05/05 06:05:12;;;;;;;29.85;11.70;;;;;;;;;;4768560;30;20508;-79
2022/05/05 06:07:38;;;;;;;20.75;11.88;;;;;;;;;;4768808;30;20091;-80
2022/05/05 06:10:07;;;;;;;27.35;12.00;;;18.90;67.20;;;;;;4770491;30;20071;-80
2022/05/05 06:12:35;;;;;;;30.60;11.00;;;19.50;80.00;;;;;;4757701;30;20048;-81
2022/05/05 06:15:01;;;;;;;24.27;11.40;;;;;;;;;;4755310;30;20122;-78
2022/05/05 06:17:27;;;;;;;32.20;11.48;;;;;;;;;;4756055;30;20055;-76
2022/05/05 06:19:56;;;;;;;20.13;10.63;;;;;;;;;;4768355;30;20052;-77
2022/05/05 06:22:22;;;;;;;23.02;10.88;;;;;;;;;;4760048;30;20066;-76
2022/05/05 06:24:48;;;;;;;23.35;10.30;;;;;;;;;;4761957;30;20045;-76
2022/05/05 06:27:14;;;;;;;28.33;10.43;;;;;;;;;;4774277;30;20053;-77
2022/05/05 06:29:40;;;;;;;19.60;9.30;;;;;;;;;;4768757;30;20064;-77
2022/05/05 06:32:06;;;;;;;22.85;9.65;;;;;;;;;;4769497;30;20107;-77
2022/05/05 06:34:32;;;;;;;17.50;9.50;;;;;;;;;;4752703;30;20092;-76
2022/05/05 06:36:59;;;;;;;25.15;9.75;;;;;;;;;;4770129;30;20142;-77
2022/05/05 06:39:25;;;;;;;16.70;9.25;;;;;;;;;;4765711;30;20089;-78
2022/05/05 06:41:51;;;;;;;21.58;8.57;;;;;;;;;;4761140;30;20139;-79
2022/05/05 06:44:17;;;;;;;24.85;9.10;;;;;;;;;;4754357;30;20071;-80
2022/05/05 06:46:44;;;;;;;22.92;8.73;;;;;;;;;;4770170;30;20060;-80
2022/05/05 06:49:12;;;;;;;20.10;8.35;;;;;;;;;;4761316;30;20057;-79
2022/05/05 06:51:38;;;;;;;14.57;7.95;;;;;;;;;;4767358;30;20110;-79
2022/05/05 06:54:04;;;;;;;19.77;8.27;;;;;;;;;;4763174;30;20127;-80
2022/05/05 06:56:31;;;;;;;19.25;8.10;;;;;;;;;;4769864;30;20059;-79
2022/05/05 06:58:57;;;;;;;12.13;7.95;;;;;;;;;;4757947;30;20110;-80
2022/05/05 07:06:53;;;;;;;17.48;7.80;;;;;;;;;;4763042;30;20303;-79
2022/05/05 07:12:04;;;;;;;24.58;7.80;;;;;;;;;;4769144;30;20457;-79
2022/05/05 07:14:31;;;;;;;18.25;7.55;;;;;;;;;;4761937;30;20092;-79
2022/05/05 07:17:03;;;;;;;16.38;7.25;;;27.40;38.80;;;;;;4778339;30;20391;-78
2022/05/05 07:19:29;;;;;;;19.50;6.97;;;;;;;;;;4752718;30;20060;-79
2022/05/05 07:21:58;;;;;;;24.67;6.15;;;;;;;;;;4763603;30;20082;-79
2022/05/05 07:24:24;;;;;;;19.85;5.82;;;;;;;;;;4736773;30;20116;-78
2022/05/05 07:26:50;;;;;;;17.10;5.78;;;;;;;;;;4770895;30;20060;-78
2022/05/05 07:29:16;;;;;;;11.68;5.38;;;;;;;;;;4755924;30;20176;-78
2022/05/05 07:31:42;;;;;;;16.05;5.38;;;;;;;;;;4761857;30;20060;-79
2022/05/05 07:34:08;;;;;;;15.07;5.25;;;;;;;;;;4763567;30;20056;-78
2022/05/05 07:36:34;;;;;;;11.13;4.50;;;;;;;;;;4763200;30;20062;-79
2022/05/05 07:39:00;;;;;;;21.38;6.22;;;;;;;;;;4759744;30;20054;-78
2022/05/05 07:41:27;;;;;;;14.63;5.30;;;;;;;;;;4760738;30;20373;-78
2022/05/05 07:43:53;;;;;;;20.77;7.13;;;;;;;;;;4751144;30;20091;-79
2022/05/05 07:46:19;;;;;;;15.80;6.03;;;;;;;;;;4757047;30;20549;-78
2022/05/05 07:48:45;;;;;;;12.43;5.18;;;25.30;40.60;;;;;;4753183;30;20388;-79
2022/05/05 07:51:14;;;;;;;19.65;5.10;;;;;;;;;;4761727;30;20063;-78
2022/05/05 07:54:34;;;;;;;8.52;4.03;;;;;;;;;;4766450;30;20071;-78
2022/05/05 07:56:32;;;;;;;8.55;4.15;;;;;;;;;;4755878;30;20056;-80
2022/05/05 07:58:58;;;;;;;11.68;4.85;;;;;;;;;;4758970;30;20055;-78
2022/05/05 08:01:24;;;;;;;9.18;4.20;;;;;;;;;;4758990;30;20060;-80
2022/05/05 08:03:50;;;;;;;11.05;3.80;;;;;;;;;;4760567;30;20480;-80
2022/05/05 08:06:16;;;;;;;8.63;4.20;;;;;;;;;;4768648;30;20484;-79
2022/05/05 08:08:42;;;;;;;11.95;4.00;;;;;;;;;;4762273;30;20052;-79
2022/05/05 08:11:09;;;;;;;14.07;4.55;;;;;;;;;;4760399;30;20083;-80
2022/05/05 08:13:35;;;;;;;12.07;4.25;;;;;;;;;;4766265;30;20083;-80
2022/05/05 08:16:01;;;;;;;8.75;4.18;;;;;;;;;;4743517;30;20088;-79
2022/05/05 08:18:27;;;;;;;10.68;4.50;;;;;;;;;;4752549;30;20531;-80
2022/05/05 08:20:56;;;;;;;10.75;4.50;;;;;;;;;;4739115;30;20130;-80
2022/05/05 08:23:22;;;;;;;13.80;4.55;;;;;;;;;;4759384;30;20102;-80
2022/05/05 08:28:36;;;;;;;10.32;4.97;;;;;;;;;;4765540;30;20061;-81
2022/05/05 08:31:02;;;;;;;17.23;7.68;;;;;;;;;;4748703;30;20055;-82
2022/05/05 08:33:38;;;;;;;;;;;22.10;43.80;;;;;;4764426;30;20062;-83
2022/05/05 08:36:07;;;;;;;8.02;4.68;;;;;;;;;;4769448;30;20344;-82
2022/05/05 08:38:33;;;;;;;10.18;4.75;;;;;;;;;;4766386;30;20060;-82
2022/05/05 08:41:00;;;;;;;10.32;5.32;;;;;;;;;;4753339;30;20056;-83
2022/05/05 08:43:26;;;;;;;10.80;4.68;;;;;;;;;;4740921;30;20067;-82
2022/05/05 08:45:56;;;;;;;9.93;5.57;;;;;;;;;;4763785;30;20094;-82
2022/05/05 08:48:25;;;;;;;7.55;4.30;;;;;;;;;;4763992;30;20081;-83
2022/05/05 08:51:01;;;;;;;16.65;4.50;;;;;;;;;;4746169;30;20487;-82
2022/05/05 08:53:35;;;;;;;9.18;4.47;;;;;;;;;;4751870;30;20060;-82
2022/05/05 08:56:05;;;;;;;14.68;4.53;;;;;;;;;;4745972;30;20056;-82
2022/05/05 08:58:35;;;;;;;8.95;4.78;;;;;;;;;;4764337;30;20052;-82
2022/05/05 09:01:10;;;;;;;10.50;4.90;;;;;;;;;;4771173;30;20047;-85
2022/05/05 09:03:39;;;;;;;10.88;5.40;;;;;;;;;;4784396;29;20069;-85
2022/05/05 09:06:11;;;;;;;29.48;5.60;;;;;;;;;;4780599;30;20047;-85
2022/05/05 09:08:43;;;;;;;10.20;4.95;;;;;;;;;;4785228;30;20072;-85
2022/05/05 09:11:13;;;;;;;10.20;5.15;;;;;;;;;;4784052;30;20048;-85
2022/05/05 09:13:39;;;;;;;8.52;4.90;;;;;;;;;;4782073;30;20028;-84
2022/05/05 09:16:10;;;;;;;8.38;4.85;;;;;;;;;;4786412;30;20082;-85
2022/05/05 09:18:36;;;;;;;8.55;4.75;;;;;;;;;;4788681;29;20899;-83
2022/05/05 09:21:06;;;;;;;8.15;4.88;;;19.70;50.10;;;;;;4776254;30;20052;-82
2022/05/05 09:26:27;;;;;;;17.30;5.80;;;19.90;50.50;;;;;;4767622;30;20052;-84
2022/05/05 09:29:22;;;;;;;96.28;9.23;;;20.10;50.20;;;;;;4768618;30;20044;-85
2022/05/05 09:31:51;;;;;;;10.88;4.82;;;;;;;;;;4775467;30;20036;-89
2022/05/05 09:34:20;;;;;;;12.73;5.10;;;;;;;;;;4771556;30;20059;-88
2022/05/05 09:36:49;;;;;;;8.23;4.65;;;;;;;;;;4768836;30;20060;-83
2022/05/05 09:39:17;;;;;;;11.95;4.70;;;;;;;;;;4777214;30;20118;-86
2022/05/05 09:41:45;;;;;;;8.20;4.57;;;20.40;49.80;;;;;;4761089;30;20060;-86
2022/05/05 09:44:21;;;;;;;8.07;4.85;;;;;;;;;;4783522;30;20062;-84
2022/05/05 09:46:56;;;;;;;6.85;4.25;;;;;;;;;;4758399;30;20064;-84
2022/05/05 09:49:23;;;;;;;27.35;5.55;;;;;;;;;;4778679;30;20131;-85
2022/05/05 09:58:26;;;;;;;13.32;5.45;;;;;;;;;;4777715;30;20045;-85
2022/05/05 10:01:09;;;;;;;19.50;5.30;;;;;;;;;;4756161;30;20519;-83
2022/05/05 10:04:01;;;;;;;19.90;4.80;;;;;;;;;;4770313;30;20614;-82
2022/05/05 10:07:19;;;;;;;37.92;6.00;;;20.50;49.80;;;;;;4780840;30;20063;-84
2022/05/05 10:13:17;;;;;;;10.55;5.10;;;;;;;;;;4717510;30;20512;-82
2022/05/05 10:16:22;;;;;;;9.25;5.30;;;;;;;;;;4711141;30;20497;-82
2022/05/05 10:19:01;;;;;;;13.13;5.43;;;;;;;;;;4710267;30;20052;-82
2022/05/05 10:21:47;;;;;;;14.15;5.93;;;;;;;;;;4730687;30;20092;-83
2022/05/05 10:24:17;;;;;;;10.73;5.22;;;;;;;;;;4698144;30;20057;-81
2022/05/05 10:26:52;;;;;;;7.25;5.15;;;21.00;49.10;;;;;;4713012;30;20091;-82
2022/05/05 10:29:36;;;;;;;13.13;5.50;;;;;;;;;;4730983;30;20060;-82
2022/05/05 10:32:05;;;;;;;15.98;5.57;;;;;;;;;;4717768;30;20575;-82
2022/05/05 10:34:32;;;;;;;9.10;5.20;;;;;;;;;;4715817;30;20065;-83
2022/05/05 10:36:59;;;;;;;8.95;5.22;;;;;;;;;;4717761;30;20064;-81
2022/05/05 10:39:27;;;;;;;10.32;4.57;;;;;;;;;;4720633;30;20053;-82
2022/05/05 10:42:15;;;;;;;10.02;4.47;;;;;;;;;;4706886;30;20064;-82
2022/05/05 10:45:10;;;;;;;6.95;4.05;;;21.30;48.90;;;;;;4736174;30;20072;-81
2022/05/05 10:47:44;;;;;;;7.32;4.43;;;;;;;;;;4720442;30;20947;-81
2022/05/05 10:50:54;;;;;;;7.13;4.60;;;21.50;48.60;;;;;;4735038;30;20110;-81
2022/05/05 10:53:39;;;;;;;8.57;5.00;;;;;;;;;;4757022;30;20079;-81
2022/05/05 10:56:26;;;;;;;9.90;5.35;;;;;;;;;;4774797;30;20064;-82
2022/05/05 10:59:09;;;;;;;10.30;5.27;;;;;;;;;;4771128;30;20068;-80
2022/05/05 11:01:53;;;;;;;7.30;4.50;;;21.60;47.70;;;;;;4774689;30;20060;-83
2022/05/05 11:04:20;;;;;;;9.93;4.40;;;;;;;;;;4760707;30;20064;-83
2022/05/05 11:07:09;;;;;;;10.32;4.35;;;;;;;;;;4764157;30;20091;-82
2022/05/05 11:09:41;;;;;;;9.43;4.35;;;;;;;;;;4745976;30;20067;-81
2022/05/05 11:12:36;;;;;;;8.40;4.60;;;;;;;;;;4778726;30;20085;-84
2022/05/05 11:23:45;;;;;;;9.80;4.87;;;;;;;;;;4761620;30;20141;-82
2022/05/05 11:26:23;;;;;;;12.10;4.63;;;;;;;;;;4769968;30;20832;-82
2022/05/05 11:28:58;;;;;;;9.98;5.13;;;;;;;;;;4772156;30;20062;-82
2022/05/05 11:31:34;;;;;;;12.73;5.18;;;;;;;;;;4765505;30;20125;-83
2022/05/05 11:34:03;;;;;;;9.85;5.53;;;;;;;;;;4752369;30;20060;-83
2022/05/05 11:36:37;;;;;;;14.00;4.90;;;;;;;;;;4757804;30;20557;-84
2022/05/05 11:39:04;;;;;;;14.85;5.47;;;;;;;;;;4753601;30;20570;-84
2022/05/05 11:41:41;;;;;;;8.27;5.57;;;;;;;;;;4763023;30;20056;-83
2022/05/05 11:44:17;;;;;;;8.02;5.13;;;;;;;;;;4751289;30;20071;-83
2022/05/05 11:46:54;;;;;;;14.38;5.20;;;;;;;;;;4765536;30;20064;-83
2022/05/05 11:49:21;;;;;;;8.00;4.88;;;;;;;;;;4776758;30;20064;-84
2022/05/05 11:51:51;;;;;;;6.65;4.60;;;;;;;;;;4726145;30;20416;-83
2022/05/05 11:54:28;;;;;;;8.73;4.47;;;22.40;47.60;;;;;;4741723;30;20416;-83
2022/05/05 11:57:01;;;;;;;7.25;4.47;;;;;;;;;;4757845;30;20056;-84
2022/05/05 12:02:30;;;;;;;6.93;4.30;;;22.60;46.30;;;;;;4762936;30;20056;-85
2022/05/05 12:05:07;;;;;;;9.35;4.45;;;;;;;;;;4772791;30;20067;-84
2022/05/05 12:07:40;;;;;;;8.95;4.88;;;;;;;;;;4775747;30;20059;-83
2022/05/05 12:10:17;;;;;;;7.93;3.92;;;;;;;;;;4777475;30;20079;-84
2022/05/05 12:12:48;;;;;;;10.50;4.10;;;22.70;46.50;;;;;;4762690;30;20063;-84
2022/05/05 12:15:21;;;;;;;6.32;3.30;;;22.90;46.10;;;;;;4759582;30;20096;-85
2022/05/05 12:17:57;;;;;;;8.90;4.13;;;23.00;45.90;;;;;;4745688;30;20064;-82
2022/05/05 12:20:27;;;;;;;8.93;4.72;;;;;;;;;;4768390;30;20565;-83
2022/05/05 12:23:04;;;;;;;6.30;3.97;;;23.00;45.50;;;;;;4794608;30;20265;-83
2022/05/05 12:25:30;;;;;;;10.85;3.67;;;;;;;;;;4799080;30;20074;-83
2022/05/05 12:27:59;;;;;;;8.07;4.40;;;;;;;;;;4799619;30;20076;-82
2022/05/05 12:30:39;;;;;;;8.45;4.80;;;;;;;;;;4818873;29;20055;-82
2022/05/05 12:33:05;;;;;;;8.68;4.72;;;;;;;;;;4817342;29;20093;-82
2022/05/05 12:35:41;;;;;;;11.90;5.18;;;23.40;45.40;;;;;;4798155;29;20065;-82
2022/05/05 12:38:16;;;;;;;7.20;4.85;;;23.40;45.00;;;;;;4781543;30;20540;-82
2022/05/05 12:40:44;;;;;;;9.98;4.35;;;23.40;46.70;;;;;;4795289;29;20055;-84
2022/05/05 12:43:21;;;;;;;7.28;4.47;;;;;;;;;;4761305;30;20062;-83
2022/05/05 12:45:50;;;;;;;9.35;4.32;;;;;;;;;;4760860;30;20092;-82
2022/05/05 12:48:22;;;;;;;12.30;4.60;;;23.40;45.90;;;;;;4759043;30;20056;-80
2022/05/05 12:50:49;;;;;;;7.90;4.80;;;23.20;45.50;;;;;;4774637;30;20085;-79
2022/05/05 13:01:40;;;;;;;15.20;4.95;;;23.10;45.80;;;;;;4752276;30;20067;-82
2022/05/05 13:04:12;;;;;;;9.48;4.43;;;;;;;;;;4752823;30;20055;-82
2022/05/05 13:06:39;;;;;;;9.05;4.63;;;;;;;;;;4737102;30;20459;-82
2022/05/05 13:09:11;;;;;;;8.10;4.68;;;;;;;;;;4747853;30;20048;-80
2022/05/05 13:11:40;;;;;;;9.10;4.55;;;22.10;46.80;;;;;;4759621;30;20137;-81
2022/05/05 13:14:09;;;;;;;12.55;4.68;;;;;;;;;;4736997;30;20073;-81
2022/05/05 13:16:35;;;;;;;11.82;4.30;;;;;;;;;;4753460;30;20391;-82
2022/05/05 13:19:02;;;;;;;8.15;4.80;;;;;;;;;;4747391;30;20053;-81
2022/05/05 13:21:29;;;;;;;6.25;4.30;;;;;;;;;;4753207;30;20082;-82
2022/05/05 13:23:56;;;;;;;13.00;4.63;;;;;;;;;;4765425;30;20087;-83
2022/05/05 13:26:22;;;;;;;7.40;4.53;;;;;;;;;;4758379;30;20068;-82
2022/05/05 13:28:48;;;;;;;12.82;4.07;;;;;;;;;;4754627;30;20056;-83
2022/05/05 13:31:14;;;;;;;12.52;4.30;;;;;;;;;;4739141;30;20084;-82
2022/05/05 13:33:43;;;;;;;10.93;4.55;;;;;;;;;;4737909;30;20067;-82
2022/05/05 13:36:10;;;;;;;11.30;4.30;;;;;;;;;;4753773;30;20127;-81
2022/05/05 13:38:36;;;;;;;7.30;3.83;;;;;;;;;;4755224;30;20055;-84
2022/05/05 13:41:03;;;;;;;7.80;4.20;;;;;;;;;;4748512;30;20071;-82
2022/05/05 13:43:29;;;;;;;9.50;4.20;;;;;;;;;;4771578;30;20468;-81
2022/05/05 13:46:01;;;;;;;10.68;4.40;;;;;;;;;;4770953;30;20103;-81
2022/05/05 13:48:29;;;;;;;11.70;4.20;;;;;;;;;;4767206;30;20052;-81
2022/05/05 13:50:55;;;;;;;12.90;4.20;;;;;;;;;;4765246;30;20055;-81
2022/05/05 13:53:21;;;;;;;12.13;4.53;;;;;;;;;;4754908;30;20064;-81
2022/05/05 13:55:47;;;;;;;9.85;4.88;;;;;;;;;;4738842;30;20060;-81
2022/05/05 13:58:13;;;;;;;10.07;4.32;;;;;;;;;;4755770;30;20070;-81
2022/05/05 14:00:39;;;;;;;7.53;4.50;;;;;;;;;;4761576;30;20060;-81
2022/05/05 14:03:05;;;;;;;9.15;4.40;;;;;;;;;;4778234;30;20415;-81
2022/05/05 14:05:32;;;;;;;8.05;4.43;;;;;;;;;;4755071;30;20125;-81
2022/05/05 14:13:31;;;;;;;7.45;3.95;;;;;;;;;;4779365;30;20056;-80
2022/05/05 14:15:57;;;;;;;7.03;3.97;;;;;;;;;;4777550;30;20069;-81
2022/05/05 14:18:24;;;;;;;11.38;3.92;;;;;;;;;;4758222;30;20052;-81
2022/05/05 14:20:50;;;;;;;7.45;3.55;;;;;;;;;;4766699;30;20058;-83
2022/05/05 14:23:21;;;;;;;9.38;3.83;;;;;;;;;;4774890;30;20079;-82
2022/05/05 14:25:47;;;;;;;6.90;3.65;;;;;;;;;;4781536;30;20059;-80
2022/05/05 14:28:13;;;;;;;6.30;3.90;;;;;;;;;;4765375;30;20131;-81
2022/05/05 14:30:39;;;;;;;6.43;4.10;;;;;;;;;;4754947;30;20056;-79
2022/05/05 14:33:08;;;;;;;12.25;4.15;;;;;;;;;;4758233;30;20060;-80
2022/05/05 14:35:35;;;;;;;10.07;4.30;;;;;;;;;;4754353;30;20564;-80
2022/05/05 14:38:03;;;;;;;8.52;4.15;;;;;;;;;;4761973;30;20051;-81
2022/05/05 14:40:29;;;;;;;5.95;3.95;;;;;;;;;;4760993;30;20057;-81
2022/05/05 14:42:55;;;;;;;9.35;4.25;;;;;;;;;;4758969;30;20102;-81
2022/05/05 14:45:21;;;;;;;9.63;3.63;;;;;;;;;;4762079;30;20064;-82
2022/05/05 14:47:54;;;;;;;9.68;3.75;;;;;;;;;;4750758;30;20054;-80
2022/05/05 14:50:20;;;;;;;7.05;3.50;;;;;;;;;;4776206;30;20055;-80
2022/05/05 14:52:46;;;;;;;6.72;3.65;;;;;;;;;;4761512;30;20139;-80
2022/05/05 14:55:13;;;;;;;7.07;3.58;;;;;;;;;;4769591;30;20070;-79
2022/05/05 14:57:39;;;;;;;8.55;3.53;;;;;;;;;;4775178;30;20056;-80
2022/05/05 15:00:06;;;;;;;6.35;3.70;;;19.50;52.50;;;;;;4774763;30;20403;-79
2022/05/05 15:02:32;;;;;;;9.68;3.22;;;;;;;;;;4774940;30;20135;-82
2022/05/05 15:05:01;;;;;;;5.18;3.10;;;;;;;;;;4780764;30;20064;-81
2022/05/05 15:07:28;;;;;;;9.00;3.60;;;;;;;;;;4781157;30;20095;-82
2022/05/05 15:09:54;;;;;;;17.40;4.60;;;;;;;;;;4805632;30;20139;-82
2022/05/05 15:12:23;;;;;;;9.25;3.90;;;;;;;;;;4790991;30;20062;-81
2022/05/05 15:14:50;;;;;;;11.23;3.50;;;;;;;;;;4781041;30;20064;-81
2022/05/05 15:17:17;;;;;;;5.50;3.38;;;;;;;;;;4778322;30;20129;-83
2022/05/05 15:19:43;;;;;;;5.35;3.28;;;;;;;;;;4770991;30;20055;-81
2022/05/05 15:22:10;;;;;;;8.80;3.50;;;;;;;;;;4777939;30;20496;-82
2022/05/05 15:24:36;;;;;;;8.85;3.78;;;;;;;;;;4778949;30;20066;-81
2022/05/05 15:27:02;;;;;;;9.00;3.70;;;;;;;;;;4776172;30;20055;-82
2022/05/05 15:29:29;;;;;;;8.60;4.55;;;;;;;;;;4775073;30;20084;-82